Fingal, Canada
Current Conditions -  °F | °C
As of 3:00 AM on Monday 24 Nov 2014 (Local Time) from CYXU Reporting Station
Light Rain Light Rain  
Wind Chill: 52°   Ceiling: 1000
Heat Index: 52°   Visibility: 5mi
Dew Point: 50°   Wind: 22mph
Humidity: 94%   Direction: 160°SSE
Pressure: 29.2"   Gusts: 35mph
Location:  42.72°N, 81.3°W
Report Text: CYXU 240800Z 16019G30KT 5SM -RA BR BKN010 OVC025 11/10 A2920 RMK SF6SC2 SLP890 DENSITY ALT 1400FT
Loading
Personal Weather Stations






























Interactive Weather Map New forecast layout! Learn more

10-Day Weather Forecast

Advertisements
Track Severe Weather on mobile